createdAt,value
2023-05-07T00:00:23.015Z,5.60
2023-05-07T00:03:16.791Z,6.50
2023-05-07T00:05:50.878Z,7.00
2023-05-07T00:08:24.885Z,5.70
2023-05-07T00:10:58.881Z,6.00
2023-05-07T00:13:36.783Z,7.40
2023-05-07T00:16:10.972Z,7.70
2023-05-07T00:18:44.319Z,6.90
2023-05-07T00:21:17.926Z,7.40
2023-05-07T00:23:51.759Z,6.10
2023-05-07T00:26:25.280Z,6.70
2023-05-07T00:28:58.874Z,8.00
2023-05-07T00:31:32.512Z,5.60
2023-05-07T00:34:05.845Z,6.00
2023-05-07T00:36:39.427Z,7.20
2023-05-07T00:39:13.039Z,8.80
2023-05-07T00:41:46.316Z,5.80
2023-05-07T00:44:20.567Z,6.40
2023-05-07T00:46:54.008Z,6.60
2023-05-07T00:49:34.445Z,4.50
2023-05-07T00:52:09.484Z,7.20
2023-05-07T00:54:43.924Z,7.50
2023-05-07T00:57:17.947Z,9.10
2023-05-07T00:59:51.846Z,6.10
2023-05-07T01:02:25.255Z,4.40
2023-05-07T01:04:59.575Z,6.20
2023-05-07T01:07:34.714Z,7.60
2023-05-07T01:10:10.449Z,6.20
2023-05-07T01:12:44.923Z,4.20
2023-05-07T01:15:19.105Z,6.60
2023-05-07T01:17:53.065Z,4.90
2023-05-07T01:20:32.966Z,5.90
2023-05-07T01:23:09.598Z,6.30
2023-05-07T01:25:42.757Z,5.80
2023-05-07T01:28:17.172Z,5.20
2023-05-07T01:30:57.031Z,5.90
2023-05-07T01:33:34.307Z,7.30
2023-05-07T01:36:10.239Z,5.60
2023-05-07T01:38:44.891Z,4.30
2023-05-07T01:41:18.633Z,5.70
2023-05-07T01:43:53.200Z,5.40
2023-05-07T01:46:27.485Z,10.80
2023-05-07T01:49:01.328Z,4.70
2023-05-07T01:51:36.116Z,5.20
2023-05-07T01:54:09.754Z,6.60
2023-05-07T01:56:44.762Z,6.00
2023-05-07T01:59:18.883Z,6.10
2023-05-07T02:01:52.409Z,6.10
2023-05-07T02:04:26.155Z,5.70
2023-05-07T02:07:00.710Z,8.20
2023-05-07T02:09:34.735Z,4.50
2023-05-07T02:12:09.185Z,4.80
2023-05-07T02:14:42.758Z,6.60
2023-05-07T02:17:16.525Z,5.10
2023-05-07T02:19:50.123Z,4.90
2023-05-07T02:22:23.436Z,5.00
2023-05-07T02:24:57.278Z,5.70
2023-05-07T02:27:30.849Z,4.80
2023-05-07T02:30:04.442Z,6.70
2023-05-07T02:32:38.394Z,5.60
2023-05-07T02:35:12.895Z,4.80
2023-05-07T02:37:46.871Z,6.40
2023-05-07T02:40:21.594Z,5.00
2023-05-07T02:42:55.342Z,5.30
2023-05-07T02:45:29.443Z,5.70
2023-05-07T02:48:02.837Z,4.70
2023-05-07T02:50:36.794Z,6.80
2023-05-07T02:53:10.568Z,4.90
2023-05-07T02:55:44.334Z,4.80
2023-05-07T02:58:18.072Z,5.60
2023-05-07T03:00:51.583Z,4.90
2023-05-07T03:03:47.429Z,4.00
2023-05-07T03:06:21.236Z,6.00
2023-05-07T03:08:54.908Z,8.00
2023-05-07T03:11:28.380Z,4.50
2023-05-07T03:14:02.140Z,3.60
2023-05-07T03:16:35.722Z,4.60
2023-05-07T03:19:09.226Z,5.00
2023-05-07T03:21:42.730Z,5.30
2023-05-07T03:24:16.728Z,4.30
2023-05-07T03:26:50.289Z,4.90
2023-05-07T03:29:23.807Z,4.90
2023-05-07T03:31:57.484Z,4.20
2023-05-07T03:34:31.341Z,5.50
2023-05-07T03:37:05.446Z,5.70
2023-05-07T03:39:38.958Z,5.80
2023-05-07T03:42:12.846Z,6.80
2023-05-07T03:44:49.852Z,3.80
2023-05-07T03:47:24.025Z,3.40
2023-05-07T03:49:58.258Z,4.30
2023-05-07T03:52:32.156Z,5.10
2023-05-07T03:55:07.374Z,5.30
2023-05-07T03:57:41.771Z,4.30
2023-05-07T04:00:17.744Z,4.30
2023-05-07T04:02:54.753Z,4.50
2023-05-07T04:08:09.029Z,5.60
2023-05-07T04:10:46.417Z,5.20
2023-05-07T04:13:20.296Z,4.60
2023-05-07T04:15:54.008Z,2.80
2023-05-07T04:18:28.213Z,4.20
2023-05-07T04:21:02.112Z,4.90
2023-05-07T04:23:35.930Z,4.00
2023-05-07T04:26:10.252Z,4.80
2023-05-07T04:28:46.964Z,4.70
2023-05-07T04:31:22.872Z,4.50
2023-05-07T04:33:58.734Z,5.50
2023-05-07T04:36:34.487Z,4.00
2023-05-07T04:39:12.016Z,3.50
2023-05-07T04:41:46.567Z,3.50
2023-05-07T04:44:20.403Z,5.60
2023-05-07T04:46:56.149Z,4.10
2023-05-07T04:49:29.581Z,5.30
2023-05-07T04:52:04.732Z,5.20
2023-05-07T04:54:39.218Z,5.30
2023-05-07T04:57:13.017Z,5.70
2023-05-07T04:59:47.137Z,8.30
2023-05-07T05:02:21.040Z,4.60
2023-05-07T05:04:55.308Z,3.50
2023-05-07T05:07:30.284Z,3.80
2023-05-07T05:10:04.498Z,3.60
2023-05-07T05:12:38.240Z,4.60
2023-05-07T05:15:13.655Z,7.40
2023-05-07T05:17:47.471Z,5.10
2023-05-07T05:20:21.707Z,3.30
2023-05-07T05:22:55.460Z,3.90
2023-05-07T05:25:30.053Z,5.90
2023-05-07T05:28:04.392Z,3.40
2023-05-07T05:30:39.030Z,3.50
2023-05-07T05:33:12.832Z,6.30
2023-05-07T05:35:46.334Z,2.50
2023-05-07T05:38:20.570Z,3.60
2023-05-07T05:40:56.539Z,4.90
2023-05-07T05:43:31.328Z,4.40
2023-05-07T05:46:06.031Z,5.10
2023-05-07T05:48:39.708Z,4.00
2023-05-07T05:51:13.667Z,5.50
2023-05-07T05:53:47.134Z,4.20
2023-05-07T05:56:22.577Z,4.40
2023-05-07T05:58:56.365Z,3.10
2023-05-07T06:01:30.319Z,5.50
2023-05-07T06:04:04.404Z,2.50
2023-05-07T06:06:38.005Z,2.50
2023-05-07T06:09:11.927Z,4.10
2023-05-07T06:11:48.920Z,3.30
2023-05-07T06:14:22.821Z,2.60
2023-05-07T06:16:56.908Z,5.70
2023-05-07T06:19:31.174Z,4.10
2023-05-07T06:22:05.371Z,3.60
2023-05-07T06:24:39.235Z,2.90
2023-05-07T06:27:13.613Z,3.70
2023-05-07T06:29:47.602Z,2.70
2023-05-07T06:32:23.583Z,3.00
2023-05-07T06:34:57.444Z,3.50
2023-05-07T06:37:31.449Z,3.60
2023-05-07T06:40:11.847Z,4.10
2023-05-07T06:42:46.273Z,2.60
2023-05-07T06:45:34.746Z,4.60
2023-05-07T06:48:09.444Z,3.70
2023-05-07T06:50:51.387Z,4.60
2023-05-07T06:53:25.300Z,5.70
2023-05-07T06:55:59.417Z,4.80
2023-05-07T06:58:33.385Z,2.50
2023-05-07T07:01:07.950Z,5.10
2023-05-07T07:03:42.383Z,4.40
2023-05-07T07:06:15.803Z,2.80
2023-05-07T07:08:49.992Z,4.60
2023-05-07T07:11:24.185Z,4.20
2023-05-07T07:13:58.055Z,4.60
2023-05-07T07:16:31.513Z,5.00
2023-05-07T07:19:05.773Z,4.60
2023-05-07T07:21:39.606Z,3.10
2023-05-07T07:24:13.080Z,4.20
2023-05-07T07:26:47.014Z,4.00
2023-05-07T07:29:21.336Z,4.00
2023-05-07T07:31:55.453Z,4.20
2023-05-07T07:34:29.019Z,4.40
2023-05-07T07:37:06.738Z,3.20
2023-05-07T07:39:40.859Z,4.60
2023-05-07T07:42:15.068Z,5.90
2023-05-07T07:44:48.535Z,6.20
2023-05-07T07:47:22.454Z,4.30
2023-05-07T07:49:56.066Z,4.30
2023-05-07T07:52:30.291Z,3.20
2023-05-07T07:55:04.610Z,5.10
2023-05-07T07:57:38.193Z,3.80
2023-05-07T08:00:13.931Z,3.30
2023-05-07T08:02:51.521Z,4.20
2023-05-07T08:05:30.790Z,3.20
2023-05-07T08:08:05.807Z,4.50
2023-05-07T08:10:41.114Z,4.50
2023-05-07T08:13:20.173Z,3.10
2023-05-07T08:15:54.093Z,3.20
2023-05-07T08:18:30.662Z,4.00
2023-05-07T08:21:05.562Z,4.70
2023-05-07T08:23:39.526Z,6.40
2023-05-07T08:26:14.234Z,3.80
2023-05-07T08:28:48.310Z,4.60
2023-05-07T08:31:22.198Z,5.50
2023-05-07T08:33:56.395Z,4.70
2023-05-07T08:36:30.260Z,4.70
2023-05-07T08:39:03.997Z,5.70
2023-05-07T08:41:38.865Z,3.90
2023-05-07T08:44:16.554Z,2.70
2023-05-07T08:46:55.465Z,3.90
2023-05-07T08:49:30.151Z,4.60
2023-05-07T08:52:04.185Z,3.20
2023-05-07T08:54:39.702Z,3.40
2023-05-07T08:57:14.477Z,4.30
2023-05-07T08:59:48.432Z,3.50
2023-05-07T09:02:22.807Z,2.90
2023-05-07T09:04:57.048Z,5.00
2023-05-07T09:07:31.241Z,5.50
2023-05-07T09:10:08.956Z,5.50
2023-05-07T09:12:43.191Z,3.70
2023-05-07T09:15:17.810Z,4.10
2023-05-07T09:17:52.149Z,6.20
2023-05-07T09:20:26.272Z,3.60
2023-05-07T09:23:01.594Z,3.40
2023-05-07T09:25:37.678Z,5.40
2023-05-07T09:28:17.075Z,4.80
2023-05-07T09:30:51.993Z,4.20
2023-05-07T09:33:29.856Z,4.50
2023-05-07T09:36:07.180Z,3.80
2023-05-07T09:38:42.794Z,3.40
2023-05-07T09:41:17.246Z,4.10
2023-05-07T09:44:01.726Z,4.10
2023-05-07T09:49:26.288Z,3.70
2023-05-07T09:52:10.244Z,5.70
2023-05-07T09:54:48.544Z,4.60
2023-05-07T09:57:25.454Z,3.30
2023-05-07T10:00:05.769Z,3.20
2023-05-07T10:02:49.805Z,3.50
2023-05-07T10:05:26.624Z,4.40
2023-05-07T10:08:04.563Z,3.30
2023-05-07T10:10:40.241Z,3.40
2023-05-07T10:13:16.638Z,4.10
2023-05-07T10:15:54.697Z,3.90
2023-05-07T10:18:34.450Z,5.00
2023-05-07T10:21:21.261Z,4.10
2023-05-07T10:24:03.017Z,6.20
2023-05-07T10:26:39.125Z,7.10
2023-05-07T10:29:25.501Z,3.20
2023-05-07T10:32:10.397Z,3.40
2023-05-07T10:34:48.099Z,5.00
2023-05-07T10:37:23.683Z,3.40
2023-05-07T10:39:58.988Z,3.50
2023-05-07T10:42:33.148Z,3.20
2023-05-07T10:45:18.148Z,3.30
2023-05-07T10:51:24.549Z,4.30
2023-05-07T10:54:29.910Z,4.10
2023-05-07T10:57:38.381Z,3.40
2023-05-07T11:00:43.245Z,2.90
2023-05-07T11:03:20.245Z,5.00
2023-05-07T11:06:19.590Z,3.00
2023-05-07T11:09:08.799Z,6.00
2023-05-07T11:11:53.262Z,3.40
2023-05-07T11:14:53.109Z,5.10
2023-05-07T11:17:36.421Z,3.10
2023-05-07T11:20:14.100Z,4.60
2023-05-07T11:22:58.367Z,3.30
2023-05-07T11:25:42.479Z,3.40
2023-05-07T11:28:25.249Z,4.70
2023-05-07T11:31:09.268Z,4.50
2023-05-07T11:33:43.520Z,3.10
2023-05-07T11:36:20.624Z,5.60
2023-05-07T11:38:54.736Z,5.00
2023-05-07T11:41:38.819Z,3.10
2023-05-07T11:44:12.486Z,4.80
2023-05-07T11:46:47.920Z,2.90
2023-05-07T11:49:21.819Z,2.40
2023-05-07T11:51:56.339Z,3.20
2023-05-07T11:54:37.592Z,5.10
2023-05-07T11:57:17.372Z,4.60
2023-05-07T11:59:55.568Z,2.90
2023-05-07T12:02:29.597Z,2.90
2023-05-07T12:05:05.415Z,2.10
2023-05-07T12:07:39.457Z,3.30
2023-05-07T12:10:16.209Z,3.60
2023-05-07T12:12:51.736Z,2.20
2023-05-07T12:15:29.375Z,3.80
2023-05-07T12:18:04.009Z,4.30
2023-05-07T12:20:38.823Z,3.50
2023-05-07T12:23:13.170Z,2.30
2023-05-07T12:25:49.199Z,4.80
2023-05-07T12:28:23.633Z,3.70
2023-05-07T12:30:58.077Z,2.90
2023-05-07T12:33:33.047Z,2.40
2023-05-07T12:36:09.786Z,4.10
2023-05-07T12:38:43.724Z,4.50
2023-05-07T12:41:18.559Z,3.60
2023-05-07T12:43:52.444Z,3.60
2023-05-07T12:46:26.116Z,3.00
2023-05-07T12:48:59.659Z,2.50
2023-05-07T12:51:33.983Z,2.50
2023-05-07T12:54:07.904Z,4.20
2023-05-07T12:56:42.475Z,3.30
2023-05-07T12:59:16.216Z,3.00
2023-05-07T13:01:50.694Z,4.00
2023-05-07T13:04:27.293Z,3.60
2023-05-07T13:07:01.497Z,4.70
2023-05-07T13:09:35.502Z,2.70
2023-05-07T13:12:09.807Z,5.70
2023-05-07T13:14:43.486Z,7.00
2023-05-07T13:17:17.176Z,4.30
2023-05-07T13:19:51.412Z,2.80
2023-05-07T13:22:25.053Z,3.20
2023-05-07T13:24:58.765Z,3.40
2023-05-07T13:27:32.762Z,2.30
2023-05-07T13:30:06.790Z,4.70
2023-05-07T13:32:40.629Z,4.80
2023-05-07T13:35:14.462Z,4.30
2023-05-07T13:37:49.604Z,3.60
2023-05-07T13:40:23.261Z,5.60
2023-05-07T13:42:59.842Z,4.30
2023-05-07T13:45:33.472Z,4.10
2023-05-07T13:48:07.806Z,3.70
2023-05-07T13:50:41.351Z,3.00
2023-05-07T13:53:17.097Z,2.50
2023-05-07T13:55:51.142Z,2.50
2023-05-07T13:58:25.910Z,4.20
2023-05-07T14:00:59.500Z,2.80
2023-05-07T14:03:34.384Z,2.80
2023-05-07T14:06:08.947Z,2.50
2023-05-07T14:08:42.605Z,4.70
2023-05-07T14:11:16.121Z,5.10
2023-05-07T14:13:49.846Z,5.60
2023-05-07T14:16:23.552Z,2.90
2023-05-07T14:18:58.469Z,3.90
2023-05-07T14:21:33.418Z,2.80
2023-05-07T14:24:08.626Z,4.90
2023-05-07T14:26:42.210Z,6.10
2023-05-07T14:29:17.041Z,3.50
2023-05-07T14:31:50.555Z,2.80
2023-05-07T14:34:24.054Z,3.60
2023-05-07T14:36:58.062Z,3.50
2023-05-07T14:39:32.304Z,3.20
2023-05-07T14:42:06.068Z,4.10
2023-05-07T14:44:41.983Z,5.20
2023-05-07T14:47:18.340Z,3.90
2023-05-07T14:49:54.412Z,3.50
2023-05-07T14:52:28.067Z,3.50
2023-05-07T14:55:01.580Z,5.00
2023-05-07T14:57:36.449Z,3.40
2023-05-07T15:00:12.610Z,5.20
2023-05-07T15:02:46.530Z,3.30
2023-05-07T15:05:21.280Z,3.20
2023-05-07T15:07:57.553Z,3.80
2023-05-07T15:10:31.582Z,3.90
2023-05-07T15:13:05.901Z,3.70
2023-05-07T15:15:39.650Z,4.00
2023-05-07T15:18:13.514Z,5.30
2023-05-07T15:20:47.601Z,12.40
2023-05-07T15:23:21.372Z,4.30
2023-05-07T15:25:56.453Z,4.00
2023-05-07T15:28:30.064Z,4.30
2023-05-07T15:31:04.674Z,3.80
2023-05-07T15:33:38.291Z,3.20
2023-05-07T15:36:12.699Z,7.00
2023-05-07T15:38:46.621Z,3.90
2023-05-07T15:41:21.822Z,3.90
2023-05-07T15:43:56.619Z,3.60
2023-05-07T15:46:30.304Z,4.00
2023-05-07T15:49:06.523Z,3.40
2023-05-07T15:51:40.413Z,5.60
2023-05-07T15:54:14.757Z,5.50
2023-05-07T15:56:48.804Z,4.90
2023-05-07T15:59:22.953Z,3.80
2023-05-07T16:01:56.533Z,3.80
2023-05-07T16:04:30.692Z,3.30
2023-05-07T16:07:04.295Z,3.80
2023-05-07T16:09:38.407Z,3.50
2023-05-07T16:12:12.216Z,3.70
2023-05-07T16:14:46.060Z,4.90
2023-05-07T16:17:19.748Z,4.00
2023-05-07T16:19:53.923Z,3.80
2023-05-07T16:22:29.741Z,4.00
2023-05-07T16:25:05.167Z,4.30
2023-05-07T16:27:39.098Z,6.10
2023-05-07T16:30:14.376Z,4.60
2023-05-07T16:32:48.089Z,5.10
2023-05-07T16:35:21.669Z,4.70
2023-05-07T16:37:55.366Z,4.60
2023-05-07T16:40:29.746Z,3.40
2023-05-07T16:43:04.320Z,5.60
2023-05-07T16:45:37.928Z,4.30
2023-05-07T16:48:12.365Z,3.60
2023-05-07T16:50:46.220Z,4.50
2023-05-07T16:53:20.828Z,5.30
2023-05-07T16:55:56.807Z,3.90
2023-05-07T16:58:30.647Z,4.90
2023-05-07T17:01:05.418Z,4.00
2023-05-07T17:03:39.280Z,4.70
2023-05-07T17:06:15.502Z,4.20
2023-05-07T17:08:48.856Z,7.50
2023-05-07T17:11:22.892Z,6.20
2023-05-07T17:13:56.622Z,4.70
2023-05-07T17:16:30.348Z,4.40
2023-05-07T17:19:04.560Z,5.60
2023-05-07T17:21:38.576Z,4.50
2023-05-07T17:24:12.707Z,4.20
2023-05-07T17:26:46.068Z,7.30
2023-05-07T17:29:20.298Z,4.70
2023-05-07T17:31:54.103Z,7.60
2023-05-07T17:34:27.761Z,3.40
2023-05-07T17:37:01.966Z,6.40
2023-05-07T17:39:35.506Z,4.10
2023-05-07T17:42:09.571Z,5.40
2023-05-07T17:44:43.531Z,7.60
2023-05-07T17:47:16.971Z,4.40
2023-05-07T17:49:50.612Z,7.70
2023-05-07T17:52:24.540Z,6.40
2023-05-07T17:54:58.320Z,5.00
2023-05-07T17:57:32.632Z,4.80
2023-05-07T18:00:10.394Z,6.00
2023-05-07T18:02:45.233Z,4.80
2023-05-07T18:05:20.273Z,5.10
2023-05-07T18:07:54.162Z,5.30
2023-05-07T18:10:27.964Z,6.80
2023-05-07T18:13:01.612Z,8.60
2023-05-07T18:15:35.445Z,6.80
2023-05-07T18:18:10.381Z,7.50
2023-05-07T18:20:44.093Z,6.50
2023-05-07T18:23:17.944Z,6.00
2023-05-07T18:25:51.931Z,7.30
2023-05-07T18:28:25.694Z,7.50
2023-05-07T18:30:59.444Z,9.00
2023-05-07T18:33:33.129Z,6.90
2023-05-07T18:36:07.458Z,6.50
2023-05-07T18:38:43.459Z,7.00
2023-05-07T18:41:18.846Z,8.60
2023-05-07T18:43:54.164Z,8.60
2023-05-07T18:46:30.634Z,8.10
2023-05-07T18:49:05.051Z,7.00
2023-05-07T18:51:39.438Z,7.10
2023-05-07T18:54:13.844Z,6.80
2023-05-07T18:56:48.959Z,8.70
2023-05-07T18:59:22.923Z,7.20
2023-05-07T19:01:57.667Z,7.10
2023-05-07T19:04:31.585Z,7.00
2023-05-07T19:07:06.956Z,8.40
2023-05-07T19:09:47.945Z,6.90
2023-05-07T19:12:25.586Z,7.30
2023-05-07T19:15:00.955Z,7.90
2023-05-07T19:17:35.869Z,8.50
2023-05-07T19:20:12.136Z,8.20
2023-05-07T19:22:47.273Z,9.70
2023-05-07T19:25:21.992Z,8.50
2023-05-07T19:27:57.017Z,9.40
2023-05-07T19:30:31.517Z,11.00
2023-05-07T19:33:05.683Z,11.20
2023-05-07T19:35:40.424Z,10.60
2023-05-07T19:38:14.450Z,8.90
2023-05-07T19:40:49.551Z,10.80
2023-05-07T19:43:23.971Z,9.10
2023-05-07T19:45:58.467Z,9.50
2023-05-07T19:48:34.150Z,8.90
2023-05-07T19:51:08.191Z,8.50
2023-05-07T19:53:43.432Z,8.30
2023-05-07T19:56:17.738Z,11.30
2023-05-07T19:58:53.376Z,10.40
2023-05-07T20:01:29.181Z,9.60
2023-05-07T20:04:03.279Z,9.40
2023-05-07T20:06:39.865Z,11.20
2023-05-07T20:09:14.470Z,10.00
2023-05-07T20:11:49.209Z,10.60
2023-05-07T20:14:22.977Z,12.40
2023-05-07T20:16:56.398Z,10.40
2023-05-07T20:19:30.234Z,11.60
2023-05-07T20:22:03.671Z,10.60
2023-05-07T20:24:41.309Z,12.30
2023-05-07T20:27:16.325Z,12.20
2023-05-07T20:29:50.167Z,9.70
2023-05-07T20:32:24.400Z,9.40
2023-05-07T20:34:58.002Z,10.70
2023-05-07T20:37:31.453Z,13.30
2023-05-07T20:40:05.447Z,12.30
2023-05-07T20:42:39.191Z,10.70
2023-05-07T20:45:14.532Z,10.00
2023-05-07T20:47:48.303Z,9.50
2023-05-07T20:50:23.709Z,10.90
2023-05-07T20:52:57.756Z,16.00
2023-05-07T20:55:31.858Z,12.80
2023-05-07T20:58:05.326Z,13.30
2023-05-07T21:00:39.694Z,10.90
2023-05-07T21:03:13.609Z,10.50
2023-05-07T21:05:52.174Z,12.60
2023-05-07T21:08:26.323Z,11.20
2023-05-07T21:10:59.918Z,10.30
2023-05-07T21:13:33.343Z,10.80
2023-05-07T21:16:07.562Z,9.70
2023-05-07T21:18:41.030Z,11.00
2023-05-07T21:21:16.769Z,11.50
2023-05-07T21:23:50.623Z,9.80
2023-05-07T21:26:24.398Z,11.10
2023-05-07T21:28:58.332Z,10.40
2023-05-07T21:31:31.964Z,11.70
2023-05-07T21:34:08.197Z,10.10
2023-05-07T21:36:42.161Z,10.30
2023-05-07T21:39:15.586Z,9.50
2023-05-07T21:41:49.366Z,10.40
2023-05-07T21:44:23.287Z,12.10
2023-05-07T21:46:57.116Z,10.40
2023-05-07T21:49:30.548Z,11.10
2023-05-07T21:52:03.699Z,10.30
2023-05-07T21:54:37.010Z,10.70
2023-05-07T21:57:10.805Z,10.20
2023-05-07T21:59:44.078Z,12.10
2023-05-07T22:02:17.256Z,10.00
2023-05-07T22:04:51.300Z,8.70
2023-05-07T22:07:27.362Z,10.70
2023-05-07T22:10:01.287Z,9.60
2023-05-07T22:12:35.695Z,8.70
2023-05-07T22:15:11.309Z,9.00
2023-05-07T22:17:45.183Z,9.60
2023-05-07T22:20:18.981Z,8.60
2023-05-07T22:22:54.330Z,8.80
2023-05-07T22:25:28.078Z,10.50
2023-05-07T22:28:02.240Z,9.20
2023-05-07T22:30:35.671Z,8.80
2023-05-07T22:33:08.975Z,7.80
2023-05-07T22:35:42.864Z,7.40
2023-05-07T22:38:16.555Z,11.90
2023-05-07T22:40:50.239Z,9.70
2023-05-07T22:43:23.838Z,8.20
2023-05-07T22:46:03.087Z,10.90
2023-05-07T22:48:36.715Z,10.30
2023-05-07T22:51:14.008Z,9.70
2023-05-07T22:53:48.069Z,9.90
2023-05-07T22:56:21.354Z,9.80
2023-05-07T22:58:55.030Z,8.70
2023-05-07T23:01:28.497Z,8.80
2023-05-07T23:04:02.228Z,9.70
2023-05-07T23:06:36.018Z,9.30
2023-05-07T23:09:10.071Z,9.30
2023-05-07T23:11:43.588Z,8.70
2023-05-07T23:14:17.177Z,8.60
2023-05-07T23:16:51.353Z,11.10
2023-05-07T23:19:25.108Z,9.10
2023-05-07T23:21:58.889Z,10.00
2023-05-07T23:24:32.300Z,13.20
2023-05-07T23:27:08.151Z,62.50
2023-05-07T23:29:41.587Z,49.30
2023-05-07T23:32:15.042Z,53.20
2023-05-07T23:34:50.866Z,47.30
2023-05-07T23:37:24.698Z,47.30
2023-05-07T23:39:58.697Z,66.60
2023-05-07T23:42:32.664Z,44.30
2023-05-07T23:45:07.255Z,22.40
2023-05-07T23:47:41.368Z,29.00
2023-05-07T23:50:15.554Z,40.40
2023-05-07T23:52:49.484Z,44.60
2023-05-07T23:55:23.135Z,52.00
2023-05-07T23:57:56.514Z,64.70
